Terminal Aerodrome Forecast
Issued by NWS Knoxville/Tri Cities, TN

Home | Current Version | Previous Version | Text Only | Print | Product List | Glossary On
Versions: 1 2 3 4 5 6 7 8 9 10 11 12 13 14 15 16 17 18 19 20
000
FTUS44 KMRX 250520
TAFTRI
TAF
KTRI 250520Z 2506/2606 VRB02KT P6SM SKC
     FM250900 00000KT 3SM BR SCT002
      TEMPO 2510/2512 1/2SM FG BKN002
     FM251400 28003KT P6SM SKC
     FM252000 24006KT P6SM BKN060=

USA.gov is the U.S. government's official web portal to all federal, state and local government web resources and services.